Dozier, Alabama
Current Conditions -  °F | °C
As of 6:56 PM on Wednesday 22 Oct 2014 (Local Time) from K79J Reporting Station
Clear Clear  
Wind Chill: 68°   Ceiling: Unl
Heat Index: 68°   Visibility: 10mi
Dew Point: 43°   Wind: 3mph
Humidity: 40%   Direction: 50°NE
Pressure: 30.06"   Gusts: NA
Location:  31.49°N, 86.36°W
Report Text: K79J 222356Z AUTO 05003KT 10SM CLR 20/06 A3006 RMK AO2 SLP175 T02000061 10267 20200 53009
Loading
Personal Weather Stations






























Interactive Weather Map
Tropical Storm Tracking
New forecast layout! Learn more

10-Day Weather Forecast

Advertisements
Track Severe Weather on mobile